^^
Datos históricos de la estación: Murcia-Puente Tocinos
Diario Informe para Julio 22, 2019 Unidades:  Ambas    Ingés   Métrico
Diario Semanal Mensual Anual
  Máxima: Mínima: Promedio:
Temperatura: 90.9 °F /  32.7 °C 76.5 °F /  24.7 °C 83.5 °F /  28.6 °C
Punto de rocio: 67.5 °F /  19.7 °C 52.2 °F /  11.2 °C 62.4 °F /  16.9 °C
Humedad: 66.6% 27.6% 51%
Velocidad viento: 14mph /  22.5km/h - 6.6mph /  10.7km/h
Racha viento: 25.3mph /  40.7km/h - -
Viento- - ESE
Presión: 30.1 in /  1019.2 hPa 30 in /  1016.3 hPa -
Precipitación: 0 in /  0.0 mm    
 
 
Tabla de datos para Julio 22, 2019
Hora Temperatura Punto de rocio Presión Viento Velocidad viento Racha viento Humedad Intensidad lluvia(por hora) Nubes
00:04 79.9 °F /  26.6 °C 67.5 °F /  19.7 °C 30.1in /  1019.2hPa NE 5.9mph /  9.5km/h 10mph /  16.1km/h 65.8% 0in /  0.0mm
00:09 79.7 °F /  26.5 °C 67.3 °F /  19.6 °C 30.1in /  1019.1hPa NE 5.8mph /  9.3km/h 10.4mph /  16.7km/h 65.7% 0in /  0.0mm
00:14 79.5 °F /  26.4 °C 67.3 °F /  19.6 °C 30.1in /  1019.1hPa NE 5.4mph /  8.7km/h 10mph /  16.1km/h 66% 0in /  0.0mm
00:19 79.5 °F /  26.4 °C 67.1 °F /  19.5 °C 30.1in /  1019.1hPa NE 5.1mph /  8.2km/h 8.1mph /  13km/h 65.9% 0in /  0.0mm
00:24 79.3 °F /  26.3 °C 67.1 °F /  19.5 °C 30.1in /  1019.1hPa NNE 4.3mph /  6.9km/h 8mph /  12.9km/h 66% 0in /  0.0mm
00:29 79.3 °F /  26.3 °C 66.9 °F /  19.4 °C 30.1in /  1019.1hPa North 3.8mph /  6.1km/h 6mph /  9.7km/h 66% 0in /  0.0mm
00:34 79.3 °F /  26.3 °C 66.9 °F /  19.4 °C 30.1in /  1019.1hPa NNE 2.4mph /  3.9km/h 5.2mph /  8.4km/h 66% 0in /  0.0mm
00:39 79.3 °F /  26.3 °C 66.9 °F /  19.4 °C 30.1in /  1019.0hPa NE 2.3mph /  3.7km/h 5mph /  8km/h 66% 0in /  0.0mm
00:44 79.3 °F /  26.3 °C 66.9 °F /  19.4 °C 30.1in /  1019.0hPa North 2mph /  3.2km/h 5mph /  8km/h 66% 0in /  0.0mm
00:49 79.3 °F /  26.3 °C 66.9 °F /  19.4 °C 30.1in /  1019.2hPa North 1.9mph /  3.1km/h 5mph /  8km/h 66% 0in /  0.0mm
00:54 79.3 °F /  26.3 °C 66.9 °F /  19.4 °C 30.1in /  1019.2hPa North 1.8mph /  2.9km/h 4mph /  6.4km/h 66% 0in /  0.0mm
00:59 79.3 °F /  26.3 °C 66.9 °F /  19.4 °C 30.1in /  1019.2hPa NO 1.8mph /  2.9km/h 4mph /  6.4km/h 66% 0in /  0.0mm
01:04 79.2 °F /  26.2 °C 66.9 °F /  19.4 °C 30.1in /  1019.2hPa NO 1.8mph /  2.9km/h 3.5mph /  5.6km/h 66% 0in /  0.0mm
01:09 79.2 °F /  26.2 °C 66.7 °F /  19.3 °C 30.1in /  1019.0hPa NO 1.8mph /  2.9km/h 3.5mph /  5.6km/h 66% 0in /  0.0mm
01:14 79.2 °F /  26.2 °C 66.7 °F /  19.3 °C 30.1in /  1019.0hPa NO 1.8mph /  2.9km/h 4.6mph /  7.4km/h 65.9% 0in /  0.0mm
01:19 79.2 °F /  26.2 °C 66.4 °F /  19.1 °C 30.1in /  1019.0hPa NO 2mph /  3.2km/h 5mph /  8km/h 65% 0in /  0.0mm
01:24 79.2 °F /  26.2 °C 66.4 °F /  19.1 °C 30.1in /  1018.9hPa NO 2.4mph /  3.9km/h 5mph /  8km/h 65% 0in /  0.0mm
01:29 79.2 °F /  26.2 °C 66.4 °F /  19.1 °C 30.1in /  1018.9hPa NO 2.1mph /  3.4km/h 4mph /  6.4km/h 65% 0in /  0.0mm
01:34 79.2 °F /  26.2 °C 66.4 °F /  19.1 °C 30.1in /  1018.9hPa NO 1.4mph /  2.2km/h 2.9mph /  4.7km/h 65% 0in /  0.0mm
01:39 79.2 °F /  26.2 °C 66.4 °F /  19.1 °C 30.1in /  1018.7hPa NO 1mph /  1.6km/h 3mph /  4.8km/h 65% 0in /  0.0mm
01:44 79.2 °F /  26.2 °C 66.4 °F /  19.1 °C 30.1in /  1018.7hPa Calm   2mph /  3.2km/h 65% 0in /  0.0mm
01:49 79.2 °F /  26.2 °C 66.4 °F /  19.1 °C 30.1in /  1018.8hPa Calm   3.5mph /  5.6km/h 65% 0in /  0.0mm
01:54 79.2 °F /  26.2 °C 66.4 °F /  19.1 °C 30.1in /  1018.8hPa Calm   3.6mph /  5.8km/h 65% 0in /  0.0mm
01:59 79.2 °F /  26.2 °C 66.4 °F /  19.1 °C 30.1in /  1018.8hPa NNO 0.7mph /  1.2km/h 5.2mph /  8.4km/h 65% 0in /  0.0mm
02:04 79.2 °F /  26.2 °C 66 °F /  18.9 °C 30.1in /  1018.8hPa ONO 2.4mph /  3.9km/h 5mph /  8km/h 64.4% 0in /  0.0mm
02:09 79 °F /  26.1 °C 65.8 °F /  18.8 °C 30.1in /  1018.6hPa ONO 2.4mph /  3.9km/h 5mph /  8km/h 64% 0in /  0.0mm
02:14 79 °F /  26.1 °C 65.8 °F /  18.8 °C 30.1in /  1018.6hPa ONO 2.4mph /  3.9km/h 5mph /  8km/h 64% 0in /  0.0mm
02:19 79 °F /  26.1 °C 65.8 °F /  18.8 °C 30.1in /  1018.6hPa ONO 2.1mph /  3.4km/h 4.7mph /  7.6km/h 64% 0in /  0.0mm
02:24 79.2 °F /  26.2 °C 65.8 °F /  18.8 °C 30.1in /  1018.5hPa OSO 1.4mph /  2.2km/h 5mph /  8km/h 64% 0in /  0.0mm
02:29 79.2 °F /  26.2 °C 65.8 °F /  18.8 °C 30.1in /  1018.5hPa OSO 1.7mph /  2.7km/h 5mph /  8km/h 64% 0in /  0.0mm
02:34 79.2 °F /  26.2 °C 65.7 °F /  18.7 °C 30.1in /  1018.5hPa OSO 2.4mph /  3.9km/h 5mph /  8km/h 63.5% 0in /  0.0mm
02:39 79.2 °F /  26.2 °C 65.5 °F /  18.6 °C 30.1in /  1018.5hPa Oeste 2.2mph /  3.6km/h 4.6mph /  7.4km/h 63% 0in /  0.0mm
02:44 79.3 °F /  26.3 °C 65.7 °F /  18.7 °C 30.1in /  1018.5hPa OSO 1.8mph /  2.9km/h 5mph /  8km/h 63% 0in /  0.0mm
02:49 79.3 °F /  26.3 °C 65.3 °F /  18.5 °C 30.1in /  1018.5hPa OSO 1.9mph /  3km/h 5mph /  8km/h 62.2% 0in /  0.0mm
02:54 79.5 °F /  26.4 °C 65.5 °F /  18.6 °C 30.1in /  1018.3hPa OSO 2mph /  3.2km/h 5mph /  8km/h 62% 0in /  0.0mm
02:59 79.5 °F /  26.4 °C 65.1 °F /  18.4 °C 30.1in /  1018.3hPa OSO 1.9mph /  3.1km/h 4mph /  6.4km/h 61.4% 0in /  0.0mm
03:04 79.7 °F /  26.5 °C 65.1 °F /  18.4 °C 30.1in /  1018.3hPa OSO 1.8mph /  2.9km/h 3mph /  4.8km/h 61% 0in /  0.0mm
03:09 79.7 °F /  26.5 °C 65.3 °F /  18.5 °C 30.1in /  1018.1hPa OSO 1.3mph /  2.1km/h   61.3% 0in /  0.0mm
03:14 79.9 °F /  26.6 °C 65.7 °F /  18.7 °C 30.1in /  1018.1hPa Calm     62% 0in /  0.0mm
03:19 79.9 °F /  26.6 °C 65.7 °F /  18.7 °C 30.1in /  1018.2hPa Calm     62% 0in /  0.0mm
03:24 79.5 °F /  26.4 °C 65.5 °F /  18.6 °C 30.1in /  1018.2hPa Calm   5.9mph /  9.5km/h 62% 0in /  0.0mm
03:29 79.5 °F /  26.4 °C 65.8 °F /  18.8 °C 30.1in /  1018.2hPa SSO 0.7mph /  1.2km/h 6.9mph /  11.1km/h 62.9% 0in /  0.0mm
03:34 79.3 °F /  26.3 °C 65.8 °F /  18.8 °C 30.1in /  1018.2hPa Sur 2.9mph /  4.7km/h 7mph /  11.3km/h 63.5% 0in /  0.0mm
03:39 79.2 °F /  26.2 °C 66.2 °F /  19 °C 30.1in /  1018.0hPa SSO 3.2mph /  5.2km/h 6.9mph /  11.1km/h 64.3% 0in /  0.0mm
03:44 79.2 °F /  26.2 °C 66.4 °F /  19.1 °C 30.1in /  1018.0hPa Sur 4mph /  6.5km/h 7.6mph /  12.2km/h 65% 0in /  0.0mm
03:49 79 °F /  26.1 °C 66.4 °F /  19.1 °C 30.1in /  1018.2hPa Sur 4.3mph /  7km/h 8.1mph /  13km/h 65.7% 0in /  0.0mm
03:54 78.8 °F /  26 °C 66.6 °F /  19.2 °C 30.1in /  1018.2hPa SSO 5.2mph /  8.4km/h 8mph /  12.9km/h 66% 0in /  0.0mm
03:59 79 °F /  26.1 °C 66.6 °F /  19.2 °C 30.1in /  1018.2hPa SO 4.8mph /  7.7km/h 6.9mph /  11.1km/h 66% 0in /  0.0mm
04:04 79 °F /  26.1 °C 66.6 °F /  19.2 °C 30.1in /  1018.2hPa SO 4mph /  6.5km/h 7mph /  11.3km/h 66% 0in /  0.0mm
04:09 79 °F /  26.1 °C 66.6 °F /  19.2 °C 30.1in /  1018.1hPa SO 4.1mph /  6.6km/h 6.9mph /  11.1km/h 66% 0in /  0.0mm
04:14 79 °F /  26.1 °C 66.6 °F /  19.2 °C 30.1in /  1018.1hPa SSO 4.3mph /  6.9km/h 7mph /  11.3km/h 66% 0in /  0.0mm
04:19 79 °F /  26.1 °C 66.6 °F /  19.2 °C 30.1in /  1018.1hPa SSO 4.2mph /  6.8km/h 7.4mph /  11.9km/h 66% 0in /  0.0mm
04:24 78.8 °F /  26 °C 66.4 °F /  19.1 °C 30.1in /  1018.0hPa SSO 4mph /  6.5km/h 7mph /  11.3km/h 66% 0in /  0.0mm
04:29 78.6 °F /  25.9 °C 66.4 °F /  19.1 °C 30.1in /  1018.0hPa SSO 4.2mph /  6.8km/h 7mph /  11.3km/h 66% 0in /  0.0mm
04:34 78.6 °F /  25.9 °C 66.2 °F /  19 °C 30.1in /  1018.0hPa Sur 4.7mph /  7.6km/h 7mph /  11.3km/h 66% 0in /  0.0mm
04:39 78.4 °F /  25.8 °C 66.2 °F /  19 °C 30.1in /  1018.0hPa SSO 4.2mph /  6.8km/h 6mph /  9.7km/h 66% 0in /  0.0mm
04:44 78.4 °F /  25.8 °C 66 °F /  18.9 °C 30.1in /  1018.0hPa SSO 2.9mph /  4.7km/h 5mph /  8km/h 66% 0in /  0.0mm
04:49 78.4 °F /  25.8 °C 66 °F /  18.9 °C 30.1in /  1018.0hPa SSO 3.1mph /  5km/h 5.8mph /  9.3km/h 66% 0in /  0.0mm
04:54 78.3 °F /  25.7 °C 66 °F /  18.9 °C 30.1in /  1017.9hPa SSO 3.6mph /  5.8km/h 6mph /  9.7km/h 66.1% 0in /  0.0mm
04:59 78.3 °F /  25.7 °C 66 °F /  18.9 °C 30.1in /  1017.9hPa SSO 3.6mph /  5.8km/h 6.2mph /  10km/h 66.5% 0in /  0.0mm
05:04 78.1 °F /  25.6 °C 66 °F /  18.9 °C 30.1in /  1017.9hPa SSO 3.6mph /  5.8km/h 6mph /  9.7km/h 66.6% 0in /  0.0mm
05:09 78.1 °F /  25.6 °C 66 °F /  18.9 °C 30.1in /  1017.8hPa Sur 3.5mph /  5.6km/h 6.2mph /  10km/h 66.6% 0in /  0.0mm
05:14 77.9 °F /  25.5 °C 65.7 °F /  18.7 °C 30.1in /  1017.8hPa Sur 3.1mph /  5km/h 6mph /  9.7km/h 66% 0in /  0.0mm
05:19 77.9 °F /  25.5 °C 65.7 °F /  18.7 °C 30.1in /  1017.8hPa Sur 3.2mph /  5.2km/h 6mph /  9.7km/h 66% 0in /  0.0mm
05:24 77.7 °F /  25.4 °C 65.5 °F /  18.6 °C 30.1in /  1017.7hPa SSO 3.6mph /  5.8km/h 6mph /  9.7km/h 66% 0in /  0.0mm
05:29 77.7 °F /  25.4 °C 65.5 °F /  18.6 °C 30.1in /  1017.7hPa SSO 3.7mph /  6km/h 6.2mph /  10km/h 66% 0in /  0.0mm
05:34 77.7 °F /  25.4 °C 65.5 °F /  18.6 °C 30.1in /  1017.7hPa SSO 4mph /  6.5km/h 6mph /  9.7km/h 66% 0in /  0.0mm
05:39 77.5 °F /  25.3 °C 65.3 °F /  18.5 °C 30.1in /  1017.7hPa Sur 3.9mph /  6.3km/h 6mph /  9.7km/h 66% 0in /  0.0mm
05:44 77.5 °F /  25.3 °C 65.3 °F /  18.5 °C 30.1in /  1017.7hPa Sur 3.6mph /  5.8km/h 6.9mph /  11.1km/h 66% 0in /  0.0mm
05:49 77.4 °F /  25.2 °C 65.1 °F /  18.4 °C 30.1in /  1017.7hPa SSO 3.6mph /  5.8km/h 7mph /  11.3km/h 66% 0in /  0.0mm
05:54 77.4 °F /  25.2 °C 65.1 °F /  18.4 °C 30.1in /  1017.7hPa SSO 3.6mph /  5.8km/h 6mph /  9.7km/h 65.9% 0in /  0.0mm
05:59 77.2 °F /  25.1 °C 64.6 °F /  18.1 °C 30.1in /  1017.7hPa SO 3.7mph /  6km/h 6mph /  9.7km/h 65.1% 0in /  0.0mm
06:04 77.2 °F /  25.1 °C 64.6 °F /  18.1 °C 30.1in /  1017.7hPa SO 4mph /  6.5km/h 6mph /  9.7km/h 65% 0in /  0.0mm
06:09 77.2 °F /  25.1 °C 64.6 °F /  18.1 °C 30.1in /  1017.7hPa SO 3.7mph /  6km/h 5mph /  8km/h 65% 0in /  0.0mm
06:14 77.2 °F /  25.1 °C 64.6 °F /  18.1 °C 30.1in /  1017.7hPa SO 2.9mph /  4.7km/h 5mph /  8km/h 65% 0in /  0.0mm
06:19 77.2 °F /  25.1 °C 64.6 °F /  18.1 °C 30.1in /  1017.7hPa SSO 2.7mph /  4.4km/h 5mph /  8km/h 65% 0in /  0.0mm
06:24 77 °F /  25 °C 64.4 °F /  18 °C 30.1in /  1017.7hPa Sur 2.4mph /  3.9km/h 6.2mph /  10km/h 65% 0in /  0.0mm
06:29 77 °F /  25 °C 64.2 °F /  17.9 °C 30.1in /  1017.7hPa Sur 2.7mph /  4.4km/h 6.9mph /  11.1km/h 65% 0in /  0.0mm
06:34 76.8 °F /  24.9 °C 63.9 °F /  17.7 °C 30.1in /  1017.9hPa Sur 3.6mph /  5.8km/h 8.1mph /  13km/h 64.5% 0in /  0.0mm
06:39 76.6 °F /  24.8 °C 63.5 °F /  17.5 °C 30.1in /  1017.9hPa SSO 3.9mph /  6.3km/h 8mph /  12.9km/h 64% 0in /  0.0mm
06:44 76.6 °F /  24.8 °C 63.5 °F /  17.5 °C 30.1in /  1017.9hPa SSO 4.7mph /  7.6km/h 8.1mph /  13km/h 64% 0in /  0.0mm
06:49 76.6 °F /  24.8 °C 63.5 °F /  17.5 °C 30.1in /  1017.9hPa Sur 4.5mph /  7.2km/h 8mph /  12.9km/h 64% 0in /  0.0mm
06:54 76.5 °F /  24.7 °C 63.3 °F /  17.4 °C 30.1in /  1017.9hPa SO 4mph /  6.5km/h 6.9mph /  11.1km/h 64% 0in /  0.0mm
06:59 76.5 °F /  24.7 °C 63.3 °F /  17.4 °C 30.1in /  1017.9hPa SO 3.7mph /  6km/h 7mph /  11.3km/h 64% 0in /  0.0mm
07:04 76.5 °F /  24.7 °C 63.3 °F /  17.4 °C 30.1in /  1018.0hPa SO 3.1mph /  5km/h 5mph /  8km/h 64% 0in /  0.0mm
07:09 76.5 °F /  24.7 °C 63.3 °F /  17.4 °C 30.1in /  1018.0hPa SSO 3.1mph /  5km/h 5.9mph /  9.5km/h 64% 0in /  0.0mm
07:14 76.5 °F /  24.7 °C 63.5 °F /  17.5 °C 30.1in /  1018.0hPa SSO 3.1mph /  5km/h 6.2mph /  10km/h 64% 0in /  0.0mm
07:19 76.6 °F /  24.8 °C 63.5 °F /  17.5 °C 30.1in /  1018.1hPa SSO 3.4mph /  5.5km/h 6.9mph /  11.1km/h 64% 0in /  0.0mm
07:24 76.6 °F /  24.8 °C 63.5 °F /  17.5 °C 30.1in /  1018.1hPa SSO 4.3mph /  6.9km/h 8.7mph /  14km/h 64% 0in /  0.0mm
07:29 76.6 °F /  24.8 °C 63.5 °F /  17.5 °C 30.1in /  1018.1hPa SSO 4.6mph /  7.4km/h 9.2mph /  14.8km/h 64% 0in /  0.0mm
07:34 76.5 °F /  24.7 °C 63.5 °F /  17.5 °C 30.1in /  1018.2hPa SSO 5.2mph /  8.4km/h 9.2mph /  14.8km/h 64% 0in /  0.0mm
07:39 76.5 °F /  24.7 °C 63.7 °F /  17.6 °C 30.1in /  1018.2hPa SSO 5.2mph /  8.4km/h 9mph /  14.5km/h 64.5% 0in /  0.0mm
07:44 76.5 °F /  24.7 °C 63.5 °F /  17.5 °C 30.1in /  1018.2hPa SSO 5.2mph /  8.4km/h 8mph /  12.9km/h 64.3% 0in /  0.0mm
07:49 76.5 °F /  24.7 °C 63.7 °F /  17.6 °C 30.1in /  1018.3hPa SSO 5mph /  8.1km/h 7mph /  11.3km/h 64.7% 0in /  0.0mm
07:54 76.5 °F /  24.7 °C 63.7 °F /  17.6 °C 30.1in /  1018.3hPa SSO 4.7mph /  7.6km/h 7mph /  11.3km/h 64.7% 0in /  0.0mm
07:59 76.6 °F /  24.8 °C 63.5 °F /  17.5 °C 30.1in /  1018.3hPa SO 4.5mph /  7.2km/h 6.2mph /  10km/h 64% 0in /  0.0mm
08:04 76.6 °F /  24.8 °C 63.5 °F /  17.5 °C 30.1in /  1018.4hPa SO 4mph /  6.5km/h 6mph /  9.7km/h 63.9% 0in /  0.0mm
08:09 76.6 °F /  24.8 °C 63.3 °F /  17.4 °C 30.1in /  1018.4hPa SSO 3.7mph /  6km/h 5.2mph /  8.4km/h 63% 0in /  0.0mm
08:14 77 °F /  25 °C 63.5 °F /  17.5 °C 30.1in /  1018.4hPa SSO 3.1mph /  5km/h 5.2mph /  8.4km/h 63% 0in /  0.0mm
08:19 77.4 °F /  25.2 °C 63.7 °F /  17.6 °C 30.1in /  1018.6hPa Sur 3.1mph /  5km/h 6.2mph /  10km/h 63% 0in /  0.0mm
08:24 77.4 °F /  25.2 °C 63.7 °F /  17.6 °C 30.1in /  1018.6hPa Sur 3.1mph /  5km/h 6mph /  9.7km/h 62.6% 0in /  0.0mm
08:29 77.5 °F /  25.3 °C 63.5 °F /  17.5 °C 30.1in /  1018.6hPa Sur 3.1mph /  5km/h 5.4mph /  8.7km/h 62% 0in /  0.0mm
08:34 77.5 °F /  25.3 °C 63.3 °F /  17.4 °C 30.1in /  1018.7hPa SSO 3.1mph /  5km/h 6mph /  9.7km/h 61.5% 0in /  0.0mm
08:39 77.7 °F /  25.4 °C 63.3 °F /  17.4 °C 30.1in /  1018.7hPa Sur 3.1mph /  5km/h 6mph /  9.7km/h 61.1% 0in /  0.0mm
08:44 77.9 °F /  25.5 °C 63.3 °F /  17.4 °C 30.1in /  1018.7hPa Sur 3.1mph /  5km/h 5mph /  8km/h 61% 0in /  0.0mm
08:49 78.3 °F /  25.7 °C 63.3 °F /  17.4 °C 30.1in /  1018.8hPa Sur 3mph /  4.9km/h 5mph /  8km/h 60.5% 0in /  0.0mm
08:54 78.4 °F /  25.8 °C 63.3 °F /  17.4 °C 30.1in /  1018.8hPa Oeste 2.9mph /  4.7km/h 5mph /  8km/h 59.7% 0in /  0.0mm
08:59 78.8 °F /  26 °C 63.3 °F /  17.4 °C 30.1in /  1018.8hPa OSO 2.5mph /  4.1km/h 4.6mph /  7.4km/h 59% 0in /  0.0mm
09:04 79.2 °F /  26.2 °C 63.1 °F /  17.3 °C 30.1in /  1018.9hPa SO 1.8mph /  2.9km/h 5mph /  8km/h 58.1% 0in /  0.0mm
09:09 79.3 °F /  26.3 °C 62.8 °F /  17.1 °C 30.1in /  1018.9hPa ONO 2mph /  3.2km/h 5.2mph /  8.4km/h 57% 0in /  0.0mm
09:14 79.3 °F /  26.3 °C 62.6 °F /  17 °C 30.1in /  1018.9hPa Oeste 2.4mph /  3.9km/h 5mph /  8km/h 56.6% 0in /  0.0mm
09:19 79.7 °F /  26.5 °C 62.6 °F /  17 °C 30.1in /  1018.9hPa NO 2.4mph /  3.9km/h 5mph /  8km/h 55.8% 0in /  0.0mm
09:24 80.1 °F /  26.7 °C 62.4 °F /  16.9 °C 30.1in /  1018.8hPa NO 2.4mph /  3.9km/h 5mph /  8km/h 55% 0in /  0.0mm
09:29 80.4 °F /  26.9 °C 62.4 °F /  16.9 °C 30.1in /  1018.8hPa Oeste 2.4mph /  3.9km/h 5mph /  8km/h 54.3% 0in /  0.0mm
09:34 81 °F /  27.2 °C 62.4 °F /  16.9 °C 30.1in /  1018.9hPa Oeste 2.4mph /  3.9km/h 5mph /  8km/h 53.6% 0in /  0.0mm
09:39 81 °F /  27.2 °C 62.4 °F /  16.9 °C 30.1in /  1018.9hPa ONO 2.5mph /  4.1km/h 5mph /  8km/h 53.2% 0in /  0.0mm
09:44 81.3 °F /  27.4 °C 62.6 °F /  17 °C 30.1in /  1018.9hPa NNO 2.9mph /  4.7km/h 5mph /  8km/h 53% 0in /  0.0mm
09:49 81.9 °F /  27.7 °C 63.1 °F /  17.3 °C 30.1in /  1018.9hPa NE 2.7mph /  4.4km/h 5mph /  8km/h 53% 0in /  0.0mm
09:54 82.4 °F /  28 °C 63.3 °F /  17.4 °C 30.1in /  1018.9hPa NNE 2.4mph /  3.9km/h 6.9mph /  11.1km/h 52.4% 0in /  0.0mm
09:59 82.8 °F /  28.2 °C 63.5 °F /  17.5 °C 30.1in /  1018.9hPa NE 2.7mph /  4.3km/h 8.1mph /  13km/h 52.5% 0in /  0.0mm
10:04 82.8 °F /  28.2 °C 63.9 °F /  17.7 °C 30.1in /  1018.9hPa NE 3.6mph /  5.8km/h 11.5mph /  18.5km/h 53% 0in /  0.0mm
10:09 82.4 °F /  28 °C 63.9 °F /  17.7 °C 30.1in /  1018.9hPa NNE 4.3mph /  7km/h 13.8mph /  22.2km/h 53.5% 0in /  0.0mm
10:14 82.4 °F /  28 °C 64 °F /  17.8 °C 30.1in /  1018.9hPa NNE 6.4mph /  10.3km/h 14mph /  22.5km/h 54% 0in /  0.0mm
10:19 82.6 °F /  28.1 °C 64.2 °F /  17.9 °C 30.1in /  1018.9hPa NNE 6.3mph /  10.2km/h 12mph /  19.3km/h 54% 0in /  0.0mm
10:24 82.8 °F /  28.2 °C 64.2 °F /  17.9 °C 30.1in /  1018.8hPa NNE 5.9mph /  9.5km/h 10mph /  16.1km/h 53.7% 0in /  0.0mm
10:29 82.9 °F /  28.3 °C 64 °F /  17.8 °C 30.1in /  1018.8hPa NE 6mph /  9.6km/h 11.4mph /  18.3km/h 52.8% 0in /  0.0mm
10:34 83.1 °F /  28.4 °C 63.9 °F /  17.7 °C 30.1in /  1018.9hPa NNE 6.2mph /  10km/h 12mph /  19.3km/h 52.2% 0in /  0.0mm
10:39 83.5 °F /  28.6 °C 63.9 °F /  17.7 °C 30.1in /  1018.9hPa NNE 6.3mph /  10.1km/h 15mph /  24.1km/h 51.7% 0in /  0.0mm
10:44 83.5 °F /  28.6 °C 64.2 °F /  17.9 °C 30.1in /  1018.9hPa NNE 6.4mph /  10.3km/h 15mph /  24.1km/h 52.4% 0in /  0.0mm
10:49 83.7 °F /  28.7 °C 64 °F /  17.8 °C 30.1in /  1018.9hPa NE 6.9mph /  11.1km/h 17.5mph /  28.2km/h 51.7% 0in /  0.0mm
10:54 83.8 °F /  28.8 °C 64.2 °F /  17.9 °C 30.1in /  1018.8hPa NE 8.1mph /  13km/h 17mph /  27.4km/h 51.8% 0in /  0.0mm
10:59 84 °F /  28.9 °C 64 °F /  17.8 °C 30.1in /  1018.8hPa NE 8.4mph /  13.6km/h 16.1mph /  25.9km/h 51.4% 0in /  0.0mm
11:04 84.2 °F /  29 °C 64.2 °F /  17.9 °C 30.1in /  1018.9hPa NE 9.2mph /  14.8km/h 16mph /  25.7km/h 51.2% 0in /  0.0mm
11:09 84.7 °F /  29.3 °C 64 °F /  17.8 °C 30.1in /  1018.9hPa NNE 8.8mph /  14.1km/h 15mph /  24.1km/h 50% 0in /  0.0mm
11:14 84.9 °F /  29.4 °C 63.5 °F /  17.5 °C 30.1in /  1018.9hPa NNE 7.6mph /  12.2km/h 16.8mph /  27km/h 48.9% 0in /  0.0mm
11:19 85.3 °F /  29.6 °C 63.3 °F /  17.4 °C 30.1in /  1018.9hPa NE 8.3mph /  13.3km/h 17.3mph /  27.8km/h 47.8% 0in /  0.0mm
11:24 85.5 °F /  29.7 °C 62.8 °F /  17.1 °C 30.1in /  1018.9hPa NE 10mph /  16.1km/h 17mph /  27.4km/h 46.8% 0in /  0.0mm
11:29 85.6 °F /  29.8 °C 60.1 °F /  15.6 °C 30.1in /  1018.9hPa NNE 10.1mph /  16.2km/h 18.4mph /  29.6km/h 42.3% 0in /  0.0mm
11:34 86 °F /  30 °C 59.2 °F /  15.1 °C 30.1in /  1018.9hPa NE 10.2mph /  16.4km/h 18mph /  29km/h 40.4% 0in /  0.0mm
11:39 86.4 °F /  30.2 °C 58.5 °F /  14.7 °C 30.1in /  1018.9hPa NE 10.6mph /  17.1km/h 20.8mph /  33.5km/h 39% 0in /  0.0mm
11:44 86.7 °F /  30.4 °C 58.5 °F /  14.7 °C 30.1in /  1018.9hPa NNE 11.8mph /  19km/h 21mph /  33.8km/h 38.3% 0in /  0.0mm
11:49 87.4 °F /  30.8 °C 56.8 °F /  13.8 °C 30.1in /  1018.9hPa NE 11.3mph /  18.2km/h 17.5mph /  28.2km/h 35.6% 0in /  0.0mm
11:54 88 °F /  31.1 °C 57 °F /  13.9 °C 30.1in /  1018.9hPa NE 10mph /  16.1km/h 19.6mph /  31.5km/h 35.1% 0in /  0.0mm
11:59 88 °F /  31.1 °C 56.1 °F /  13.4 °C 30.1in /  1018.9hPa NE 10.1mph /  16.2km/h 20mph /  32.2km/h 34.2% 0in /  0.0mm
12:04 88 °F /  31.1 °C 56.5 °F /  13.6 °C 30.1in /  1018.9hPa NE 10.2mph /  16.4km/h 18mph /  29km/h 34.6% 0in /  0.0mm
12:09 88.2 °F /  31.2 °C 55.4 °F /  13 °C 30.1in /  1018.8hPa NE 10.1mph /  16.3km/h 20.7mph /  33.3km/h 33% 0in /  0.0mm
12:14 88.2 °F /  31.2 °C 55 °F /  12.8 °C 30.1in /  1018.8hPa NE 10mph /  16.1km/h 21mph /  33.8km/h 32.6% 0in /  0.0mm
12:19 88.2 °F /  31.2 °C 55.9 °F /  13.3 °C 30.1in /  1018.8hPa NE 10.2mph /  16.4km/h 20mph /  32.2km/h 33.6% 0in /  0.0mm
12:24 88.2 °F /  31.2 °C 55.6 °F /  13.1 °C 30.1in /  1018.8hPa NE 10.7mph /  17.2km/h 17mph /  27.4km/h 33.2% 0in /  0.0mm
12:29 88.5 °F /  31.4 °C 56.3 °F /  13.5 °C 30.1in /  1018.8hPa NE 10.7mph /  17.2km/h 16.3mph /  26.2km/h 33.7% 0in /  0.0mm
12:34 88.5 °F /  31.4 °C 55.6 °F /  13.1 °C 30.1in /  1018.8hPa NE 10.7mph /  17.2km/h 16.1mph /  25.9km/h 32.7% 0in /  0.0mm
12:39 89.1 °F /  31.7 °C 55.4 °F /  13 °C 30.1in /  1018.6hPa NE 10.4mph /  16.7km/h 16.8mph /  27km/h 32% 0in /  0.0mm
12:44 89.1 °F /  31.7 °C 55.2 °F /  12.9 °C 30.1in /  1018.6hPa NE 9.7mph /  15.6km/h 17.3mph /  27.8km/h 31.8% 0in /  0.0mm
12:49 89.4 °F /  31.9 °C 54.1 °F /  12.3 °C 30.1in /  1018.6hPa NE 9.8mph /  15.8km/h 19mph /  30.6km/h 30.3% 0in /  0.0mm
12:54 89.2 °F /  31.8 °C 53.4 °F /  11.9 °C 30.1in /  1018.5hPa NE 10.2mph /  16.4km/h 21.3mph /  34.3km/h 29.6% 0in /  0.0mm
12:59 89.4 °F /  31.9 °C 52.2 °F /  11.2 °C 30.1in /  1018.5hPa NE 10.6mph /  17km/h 21.9mph /  35.2km/h 28.3% 0in /  0.0mm
13:04 89.8 °F /  32.1 °C 52.5 °F /  11.4 °C 30.1in /  1018.6hPa ENE 11.4mph /  18.4km/h 22mph /  35.4km/h 28.2% 0in /  0.0mm
13:09 90 °F /  32.2 °C 52.2 °F /  11.2 °C 30.1in /  1018.6hPa NE 11.1mph /  17.8km/h 18mph /  29km/h 27.6% 0in /  0.0mm
13:14 90.1 °F /  32.3 °C 53.6 °F /  12 °C 30.1in /  1018.6hPa NE 10.2mph /  16.4km/h 19mph /  30.6km/h 29% 0in /  0.0mm
13:19 89.8 °F /  32.1 °C 54 °F /  12.2 °C 30.1in /  1018.6hPa ENE 10.5mph /  16.9km/h 19mph /  30.6km/h 29.7% 0in /  0.0mm
13:24 90.1 °F /  32.3 °C 55.6 °F /  13.1 °C 30.1in /  1018.6hPa ENE 11.2mph /  18km/h 18.4mph /  29.6km/h 31.2% 0in /  0.0mm
13:29 90.1 °F /  32.3 °C 55.6 °F /  13.1 °C 30.1in /  1018.6hPa NE 10.9mph /  17.6km/h 18mph /  29km/h 31.1% 0in /  0.0mm
13:34 90 °F /  32.2 °C 55.8 °F /  13.2 °C 30.1in /  1018.6hPa NE 10mph /  16.1km/h 19mph /  30.6km/h 31.6% 0in /  0.0mm
13:39 89.8 °F /  32.1 °C 57 °F /  13.9 °C 30.1in /  1018.6hPa NE 10.2mph /  16.4km/h 19mph /  30.6km/h 33.2% 0in /  0.0mm
13:44 89.8 °F /  32.1 °C 56.8 °F /  13.8 °C 30.1in /  1018.6hPa ENE 10.7mph /  17.2km/h 19.6mph /  31.5km/h 33.1% 0in /  0.0mm
13:49 89.8 °F /  32.1 °C 56.3 °F /  13.5 °C 30.1in /  1018.6hPa NE 10.5mph /  16.9km/h 20mph /  32.2km/h 32.4% 0in /  0.0mm
13:54 89.4 °F /  31.9 °C 56.3 °F /  13.5 °C 30.1in /  1018.5hPa NE 10mph /  16.1km/h 18mph /  29km/h 32.8% 0in /  0.0mm
13:59 89.8 °F /  32.1 °C 58.1 °F /  14.5 °C 30.1in /  1018.5hPa NE 10.3mph /  16.5km/h 19.6mph /  31.5km/h 34.6% 0in /  0.0mm
14:04 89.6 °F /  32 °C 58.5 °F /  14.7 °C 30.1in /  1018.5hPa NE 10.7mph /  17.2km/h 21.3mph /  34.3km/h 35.2% 0in /  0.0mm
14:09 89.4 °F /  31.9 °C 58.8 °F /  14.9 °C 30.1in /  1018.4hPa NE 10.9mph /  17.6km/h 21mph /  33.8km/h 35.8% 0in /  0.0mm
14:14 89.4 °F /  31.9 °C 59.4 °F /  15.2 °C 30.1in /  1018.4hPa NE 11.8mph /  19km/h 19.6mph /  31.5km/h 36.4% 0in /  0.0mm
14:19 89.2 °F /  31.8 °C 58.8 °F /  14.9 °C 30.1in /  1018.4hPa NE 11.7mph /  18.8km/h 20mph /  32.2km/h 36% 0in /  0.0mm
14:24 89.4 °F /  31.9 °C 59.7 °F /  15.4 °C 30.1in /  1018.3hPa NE 11.4mph /  18.4km/h 18.4mph /  29.6km/h 37% 0in /  0.0mm
14:29 89.6 °F /  32 °C 59.4 °F /  15.2 °C 30.1in /  1018.3hPa NE 11.4mph /  18.4km/h 19mph /  30.6km/h 36.3% 0in /  0.0mm
14:34 89.6 °F /  32 °C 59.4 °F /  15.2 °C 30.1in /  1018.3hPa NE 11.4mph /  18.4km/h 19mph /  30.6km/h 36.3% 0in /  0.0mm
14:39 90 °F /  32.2 °C 60.1 °F /  15.6 °C 30.1in /  1018.2hPa NE 11.1mph /  17.8km/h 23.5mph /  37.8km/h 36.9% 0in /  0.0mm
14:44 89.4 °F /  31.9 °C 59.7 °F /  15.4 °C 30.1in /  1018.2hPa NE 10.2mph /  16.4km/h 23mph /  37km/h 36.9% 0in /  0.0mm
14:49 89.8 °F /  32.1 °C 59.4 °F /  15.2 °C 30.1in /  1018.2hPa NE 10.5mph /  16.9km/h 19.6mph /  31.5km/h 36.2% 0in /  0.0mm
14:54 89.8 °F /  32.1 °C 59.4 °F /  15.2 °C 30.1in /  1018.0hPa NE 11.4mph /  18.4km/h 22.3mph /  35.9km/h 36% 0in /  0.0mm
14:59 89.6 °F /  32 °C 59.2 °F /  15.1 °C 30.1in /  1018.0hPa NE 11.9mph /  19.2km/h 22mph /  35.4km/h 36.1% 0in /  0.0mm
15:04 90 °F /  32.2 °C 59.5 °F /  15.3 °C 30.1in /  1018.0hPa NE 13mph /  20.9km/h 21.9mph /  35.2km/h 36.3% 0in /  0.0mm
15:09 90 °F /  32.2 °C 59.9 °F /  15.5 °C 30.1in /  1017.8hPa NE 13.1mph /  21.1km/h 22mph /  35.4km/h 36.5% 0in /  0.0mm
15:14 90.5 °F /  32.5 °C 59.9 °F /  15.5 °C 30.1in /  1017.8hPa NE 13.5mph /  21.7km/h 21mph /  33.8km/h 36% 0in /  0.0mm
15:19 90.3 °F /  32.4 °C 60.6 °F /  15.9 °C 30.1in /  1017.8hPa NE 12.7mph /  20.5km/h 20mph /  32.2km/h 37.1% 0in /  0.0mm
15:24 90.3 °F /  32.4 °C 60.6 °F /  15.9 °C 30.1in /  1017.6hPa NE 10.7mph /  17.2km/h 19mph /  30.6km/h 37.2% 0in /  0.0mm
15:29 90.3 °F /  32.4 °C 60.4 °F /  15.8 °C 30.1in /  1017.6hPa ENE 10.5mph /  16.9km/h 21.9mph /  35.2km/h 37% 0in /  0.0mm
15:34 90.5 °F /  32.5 °C 60.6 °F /  15.9 °C 30.1in /  1017.6hPa ENE 10mph /  16.1km/h 22mph /  35.4km/h 37% 0in /  0.0mm
15:39 90.5 °F /  32.5 °C 60.6 °F /  15.9 °C 30.1in /  1017.5hPa NE 10mph /  16.1km/h 21mph /  33.8km/h 37% 0in /  0.0mm
15:44 90.7 °F /  32.6 °C 60.8 °F /  16 °C 30.1in /  1017.5hPa ENE 10mph /  16.1km/h 18.4mph /  29.6km/h 37.1% 0in /  0.0mm
15:49 90.7 °F /  32.6 °C 60.8 °F /  16 °C 30.1in /  1017.5hPa ENE 10.2mph /  16.4km/h 21.3mph /  34.3km/h 37% 0in /  0.0mm
15:54 90.5 °F /  32.5 °C 60.6 °F /  15.9 °C 30in /  1017.4hPa ENE 10.7mph /  17.2km/h 21mph /  33.8km/h 37.1% 0in /  0.0mm
15:59 90.1 °F /  32.3 °C 61.2 °F /  16.2 °C 30in /  1017.4hPa ENE 10.9mph /  17.5km/h 21mph /  33.8km/h 37.9% 0in /  0.0mm
16:04 90.7 °F /  32.6 °C 61.2 °F /  16.2 °C 30in /  1017.4hPa NE 11.2mph /  18km/h 20.7mph /  33.3km/h 37.5% 0in /  0.0mm
16:09 90.7 °F /  32.6 °C 61.2 °F /  16.2 °C 30in /  1017.4hPa NE 10.9mph /  17.6km/h 21mph /  33.8km/h 37.5% 0in /  0.0mm
16:14 90.7 °F /  32.6 °C 60.8 °F /  16 °C 30in /  1017.4hPa ENE 10.2mph /  16.4km/h 21mph /  33.8km/h 37.1% 0in /  0.0mm
16:19 90.1 °F /  32.3 °C 61 °F /  16.1 °C 30in /  1017.4hPa ENE 10.1mph /  16.2km/h 20.7mph /  33.3km/h 37.6% 0in /  0.0mm
16:24 90.1 °F /  32.3 °C 60.3 °F /  15.7 °C 30in /  1017.4hPa NE 9.7mph /  15.6km/h 21mph /  33.8km/h 36.6% 0in /  0.0mm
16:29 90.5 °F /  32.5 °C 59.9 °F /  15.5 °C 30in /  1017.4hPa NE 9.8mph /  15.8km/h 19mph /  30.6km/h 35.9% 0in /  0.0mm
16:34 90.7 °F /  32.6 °C 59.7 °F /  15.4 °C 30in /  1017.4hPa NE 10.2mph /  16.4km/h 17.3mph /  27.8km/h 35.5% 0in /  0.0mm
16:39 90.9 °F /  32.7 °C 57.7 °F /  14.3 °C 30in /  1017.3hPa NE 10.3mph /  16.6km/h 18.4mph /  29.6km/h 33.1% 0in /  0.0mm
16:44 90.9 °F /  32.7 °C 59.7 °F /  15.4 °C 30in /  1017.3hPa ENE 10.7mph /  17.2km/h 19mph /  30.6km/h 35.5% 0in /  0.0mm
16:49 90.7 °F /  32.6 °C 59 °F /  15 °C 30in /  1017.3hPa NE 10.7mph /  17.2km/h 19mph /  30.6km/h 34.6% 0in /  0.0mm
16:54 90.7 °F /  32.6 °C 56.3 °F /  13.5 °C 30in /  1017.3hPa NE 10.7mph /  17.2km/h 21.9mph /  35.2km/h 31.4% 0in /  0.0mm
16:59 90.7 °F /  32.6 °C 56.8 °F /  13.8 °C 30in /  1017.3hPa NE 11.3mph /  18.2km/h 22mph /  35.4km/h 32% 0in /  0.0mm
17:04 90.5 °F /  32.5 °C 57.9 °F /  14.4 °C 30in /  1017.3hPa NE 12.5mph /  20.1km/h 22mph /  35.4km/h 33.7% 0in /  0.0mm
17:09 90.3 °F /  32.4 °C 57.7 °F /  14.3 °C 30in /  1017.2hPa NE 12.3mph /  19.8km/h 21mph /  33.8km/h 33.5% 0in /  0.0mm
17:14 90.9 °F /  32.7 °C 56.5 °F /  13.6 °C 30in /  1017.2hPa NE 11.8mph /  19km/h 24.2mph /  38.9km/h 31.6% 0in /  0.0mm
17:19 90.7 °F /  32.6 °C 56.3 °F /  13.5 °C 30in /  1017.2hPa NE 11.9mph /  19.2km/h 24mph /  38.6km/h 31.4% 0in /  0.0mm
17:24 90.3 °F /  32.4 °C 55.9 °F /  13.3 °C 30in /  1017.0hPa NE 12.3mph /  19.8km/h 23mph /  37km/h 31.4% 0in /  0.0mm
17:29 90.3 °F /  32.4 °C 58.3 °F /  14.6 °C 30in /  1017.0hPa NE 12.6mph /  20.3km/h 23mph /  37km/h 34% 0in /  0.0mm
17:34 90.5 °F /  32.5 °C 57.2 °F /  14 °C 30in /  1017.0hPa NE 13.5mph /  21.7km/h 21mph /  33.8km/h 32.8% 0in /  0.0mm
17:39 90.9 °F /  32.7 °C 58.3 °F /  14.6 °C 30in /  1016.9hPa NE 12.7mph /  20.4km/h 18mph /  29km/h 33.6% 0in /  0.0mm
17:44 90.7 °F /  32.6 °C 59 °F /  15 °C 30in /  1016.9hPa NE 10.7mph /  17.2km/h 19mph /  30.6km/h 34.6% 0in /  0.0mm
17:49 90.3 °F /  32.4 °C 61.2 °F /  16.2 °C 30in /  1016.9hPa ENE 10.8mph /  17.4km/h 19.7mph /  31.7km/h 37.8% 0in /  0.0mm
17:54 90 °F /  32.2 °C 59.5 °F /  15.3 °C 30in /  1016.8hPa NE 11.2mph /  18km/h 24.6mph /  39.6km/h 36.2% 0in /  0.0mm
17:59 89.8 °F /  32.1 °C 58.3 °F /  14.6 °C 30in /  1016.8hPa NE 11.6mph /  18.7km/h 25mph /  40.2km/h 34.6% 0in /  0.0mm
18:04 90 °F /  32.2 °C 59.5 °F /  15.3 °C 30in /  1016.8hPa NE 12.5mph /  20.1km/h 22.3mph /  35.9km/h 36.3% 0in /  0.0mm
18:09 89.6 °F /  32 °C 59.5 °F /  15.3 °C 30in /  1016.6hPa NE 12.8mph /  20.6km/h 22mph /  35.4km/h 36.4% 0in /  0.0mm
18:14 89.4 °F /  31.9 °C 58.8 °F /  14.9 °C 30in /  1016.6hPa NE 13.5mph /  21.7km/h 23mph /  37km/h 35.9% 0in /  0.0mm
18:19 89.4 °F /  31.9 °C 58.8 °F /  14.9 °C 30in /  1016.6hPa NE 13.2mph /  21.3km/h 23.5mph /  37.8km/h 35.8% 0in /  0.0mm
18:24 89.6 °F /  32 °C 58.6 °F /  14.8 °C 30in /  1016.5hPa NE 12.5mph /  20.1km/h 23mph /  37km/h 35.3% 0in /  0.0mm
18:29 89.4 °F /  31.9 °C 57.9 °F /  14.4 °C 30in /  1016.5hPa NE 12.7mph /  20.4km/h 22.3mph /  35.9km/h 34.7% 0in /  0.0mm
18:34 89.2 °F /  31.8 °C 57 °F /  13.9 °C 30in /  1016.5hPa NE 13mph /  20.9km/h 25.3mph /  40.7km/h 33.7% 0in /  0.0mm
18:39 89.2 °F /  31.8 °C 56.8 °F /  13.8 °C 30in /  1016.5hPa NE 13.2mph /  21.2km/h 25mph /  40.2km/h 33.5% 0in /  0.0mm
18:44 89.2 °F /  31.8 °C 56.7 °F /  13.7 °C 30in /  1016.5hPa NE 13.5mph /  21.7km/h 24.6mph /  39.6km/h 33.3% 0in /  0.0mm
18:49 89.2 °F /  31.8 °C 57.2 °F /  14 °C 30in /  1016.5hPa NE 13.7mph /  22km/h 25mph /  40.2km/h 34% 0in /  0.0mm
18:54 89.1 °F /  31.7 °C 57.2 °F /  14 °C 30in /  1016.5hPa NE 14mph /  22.5km/h 25.3mph /  40.7km/h 34.3% 0in /  0.0mm
18:59 88.9 °F /  31.6 °C 58.3 °F /  14.6 °C 30in /  1016.5hPa NE 13.9mph /  22.4km/h 25mph /  40.2km/h 35.8% 0in /  0.0mm
19:04 88.9 °F /  31.6 °C 57.4 °F /  14.1 °C 30in /  1016.5hPa NE 13.7mph /  22.1km/h 21.9mph /  35.2km/h 34.6% 0in /  0.0mm
19:09 89.1 °F /  31.7 °C 57.6 °F /  14.2 °C 30in /  1016.3hPa NE 13.4mph /  21.6km/h 22mph /  35.4km/h 34.7% 0in /  0.0mm
19:14 88.9 °F /  31.6 °C 58.3 °F /  14.6 °C 30in /  1016.3hPa NE 12.3mph /  19.8km/h 21.9mph /  35.2km/h 35.7% 0in /  0.0mm
19:19 88.7 °F /  31.5 °C 58.5 °F /  14.7 °C 30in /  1016.4hPa NE 12.5mph /  20.1km/h 22mph /  35.4km/h 36.1% 0in /  0.0mm
19:24 88.3 °F /  31.3 °C 58.3 °F /  14.6 °C 30in /  1016.4hPa NE 13mph /  20.9km/h 24.2mph /  38.9km/h 36.3% 0in /  0.0mm
19:29 88.3 °F /  31.3 °C 58.6 °F /  14.8 °C 30in /  1016.4hPa NE 13.3mph /  21.4km/h 24mph /  38.6km/h 37% 0in /  0.0mm
19:34 88.2 °F /  31.2 °C 58.6 °F /  14.8 °C 30in /  1016.4hPa NE 14mph /  22.5km/h 21mph /  33.8km/h 37% 0in /  0.0mm
19:39 88.2 °F /  31.2 °C 58.5 °F /  14.7 °C 30in /  1016.4hPa NE 13.5mph /  21.8km/h 20.7mph /  33.3km/h 37% 0in /  0.0mm
19:44 88 °F /  31.1 °C 59 °F /  15 °C 30in /  1016.4hPa NE 12.5mph /  20.1km/h 21mph /  33.8km/h 37.8% 0in /  0.0mm
19:49 87.8 °F /  31 °C 61 °F /  16.1 °C 30in /  1016.5hPa NE 12.1mph /  19.4km/h 19mph /  30.6km/h 40.8% 0in /  0.0mm
19:54 87.6 °F /  30.9 °C 61.2 °F /  16.2 °C 30in /  1016.5hPa ENE 10.7mph /  17.2km/h 18mph /  29km/h 41.3% 0in /  0.0mm
19:59 87.4 °F /  30.8 °C 61.5 °F /  16.4 °C 30in /  1016.5hPa ENE 10.1mph /  16.2km/h 17.5mph /  28.2km/h 42% 0in /  0.0mm
20:04 87.3 °F /  30.7 °C 61.3 °F /  16.3 °C 30in /  1016.5hPa ENE 8.7mph /  14km/h 17mph /  27.4km/h 42% 0in /  0.0mm
20:09 86.9 °F /  30.5 °C 61.3 °F /  16.3 °C 30in /  1016.5hPa NE 8.3mph /  13.4km/h 14.5mph /  23.3km/h 42.3% 0in /  0.0mm
20:14 86.7 °F /  30.4 °C 61.5 °F /  16.4 °C 30in /  1016.5hPa ENE 7.4mph /  11.9km/h 15mph /  24.1km/h 43% 0in /  0.0mm
20:19 86.5 °F /  30.3 °C 61.7 °F /  16.5 °C 30in /  1016.6hPa NE 7.4mph /  11.9km/h 15.9mph /  25.6km/h 43.4% 0in /  0.0mm
20:24 86.2 °F /  30.1 °C 62.1 °F /  16.7 °C 30in /  1016.6hPa NE 7.4mph /  11.9km/h 16.1mph /  25.9km/h 44.5% 0in /  0.0mm
20:29 86 °F /  30 °C 62.2 °F /  16.8 °C 30in /  1016.6hPa ENE 7.6mph /  12.2km/h 15mph /  24.1km/h 45% 0in /  0.0mm
20:34 85.8 °F /  29.9 °C 62.2 °F /  16.8 °C 30in /  1016.7hPa NE 8.1mph /  13km/h 13.8mph /  22.2km/h 45.5% 0in /  0.0mm
20:39 85.6 °F /  29.8 °C 62.4 °F /  16.9 °C 30in /  1016.7hPa ENE 7.9mph /  12.7km/h 14mph /  22.5km/h 46% 0in /  0.0mm
20:44 85.5 °F /  29.7 °C 62.6 °F /  17 °C 30in /  1016.7hPa ENE 7.4mph /  11.9km/h 14mph /  22.5km/h 46.6% 0in /  0.0mm
20:49 85.3 °F /  29.6 °C 62.8 °F /  17.1 °C 30in /  1016.9hPa ENE 7mph /  11.3km/h 14mph /  22.5km/h 47% 0in /  0.0mm
20:54 85.3 °F /  29.6 °C 63 °F /  17.2 °C 30in /  1016.9hPa NE 5.9mph /  9.5km/h 10mph /  16.1km/h 47.3% 0in /  0.0mm
20:59 84.9 °F /  29.4 °C 63 °F /  17.2 °C 30in /  1016.9hPa ENE 5.7mph /  9.2km/h 10mph /  16.1km/h 47.9% 0in /  0.0mm
21:04 84.7 °F /  29.3 °C 63.5 °F /  17.5 °C 30in /  1017.0hPa ENE 5.4mph /  8.7km/h 9.7mph /  15.6km/h 48.9% 0in /  0.0mm
21:09 84.6 °F /  29.2 °C 63.3 °F /  17.4 °C 30in /  1017.0hPa NE 5.2mph /  8.4km/h 10.7mph /  17.2km/h 49% 0in /  0.0mm
21:14 84.2 °F /  29 °C 63.3 °F /  17.4 °C 30in /  1017.0hPa ENE 4.7mph /  7.6km/h 12.3mph /  19.8km/h 49.6% 0in /  0.0mm
21:19 83.8 °F /  28.8 °C 63.3 °F /  17.4 °C 30in /  1017.1hPa NE 4.9mph /  7.9km/h 13mph /  20.9km/h 50% 0in /  0.0mm
21:24 83.8 °F /  28.8 °C 63.7 °F /  17.6 °C 30in /  1017.1hPa ENE 5.4mph /  8.7km/h 11.8mph /  19km/h 50.9% 0in /  0.0mm
21:29 83.5 °F /  28.6 °C 63.9 °F /  17.7 °C 30in /  1017.1hPa ENE 5.4mph /  8.7km/h 12mph /  19.3km/h 51.6% 0in /  0.0mm
21:34 83.3 °F /  28.5 °C 63.9 °F /  17.7 °C 30in /  1017.1hPa ENE 5.4mph /  8.7km/h 9.2mph /  14.8km/h 52% 0in /  0.0mm
21:39 82.9 °F /  28.3 °C 63.9 °F /  17.7 °C 30in /  1017.1hPa NE 5.3mph /  8.6km/h 9mph /  14.5km/h 52.8% 0in /  0.0mm
21:44 82.9 °F /  28.3 °C 64 °F /  17.8 °C 30in /  1017.1hPa NE 5.2mph /  8.4km/h 8.5mph /  13.7km/h 53.1% 0in /  0.0mm
21:49 82.8 °F /  28.2 °C 64.4 °F /  18 °C 30in /  1017.2hPa ENE 5mph /  8km/h 9mph /  14.5km/h 54% 0in /  0.0mm
21:54 82.4 °F /  28 °C 64.2 °F /  17.9 °C 30in /  1017.2hPa NE 4.3mph /  6.9km/h 11.2mph /  18km/h 54.3% 0in /  0.0mm
21:59 82 °F /  27.8 °C 64.4 °F /  18 °C 30in /  1017.2hPa NE 4.9mph /  7.9km/h 12mph /  19.3km/h 55% 0in /  0.0mm
22:04 82 °F /  27.8 °C 64.6 °F /  18.1 °C 30in /  1017.3hPa NE 6.4mph /  10.3km/h 12mph /  19.3km/h 55.5% 0in /  0.0mm
22:09 81.9 °F /  27.7 °C 64.6 °F /  18.1 °C 30in /  1017.3hPa NE 6.7mph /  10.8km/h 12mph /  19.3km/h 56% 0in /  0.0mm
22:14 81.7 °F /  27.6 °C 65.1 °F /  18.4 °C 30in /  1017.3hPa NE 7.4mph /  11.9km/h 12.7mph /  20.4km/h 57.2% 0in /  0.0mm
22:19 81.3 °F /  27.4 °C 65.3 °F /  18.5 °C 30in /  1017.3hPa NE 7.6mph /  12.2km/h 13mph /  20.9km/h 58.1% 0in /  0.0mm
22:24 81.1 °F /  27.3 °C 65.7 °F /  18.7 °C 30in /  1017.3hPa NE 8.1mph /  13km/h 13mph /  20.9km/h 59.2% 0in /  0.0mm
22:29 81 °F /  27.2 °C 65.8 °F /  18.8 °C 30in /  1017.3hPa NE 7.8mph /  12.5km/h 12mph /  19.3km/h 60% 0in /  0.0mm
22:34 81 °F /  27.2 °C 65.8 °F /  18.8 °C 30in /  1017.3hPa NE 6.9mph /  11.1km/h 11mph /  17.7km/h 60.3% 0in /  0.0mm
22:39 80.8 °F /  27.1 °C 66 °F /  18.9 °C 30in /  1017.3hPa NE 6.7mph /  10.8km/h 10mph /  16.1km/h 61% 0in /  0.0mm
22:44 80.4 °F /  26.9 °C 65.7 °F /  18.7 °C 30in /  1017.3hPa NE 6.2mph /  10km/h 10.4mph /  16.7km/h 61% 0in /  0.0mm
22:49 80.4 °F /  26.9 °C 66.2 °F /  19 °C 30.1in /  1017.5hPa NE 6mph /  9.6km/h 10mph /  16.1km/h 61.9% 0in /  0.0mm
22:54 80.4 °F /  26.9 °C 66.2 °F /  19 °C 30.1in /  1017.5hPa NE 5.4mph /  8.7km/h 7.4mph /  11.9km/h 62% 0in /  0.0mm
22:59 80.2 °F /  26.8 °C 66 °F /  18.9 °C 30.1in /  1017.5hPa NE 5mph /  8.1km/h 8.1mph /  13km/h 62% 0in /  0.0mm
23:04 80.2 °F /  26.8 °C 66 °F /  18.9 °C 30.1in /  1017.5hPa NE 4.3mph /  6.9km/h 8.1mph /  13km/h 62% 0in /  0.0mm
23:09 80.1 °F /  26.7 °C 66.4 °F /  19.1 °C 30.1in /  1017.5hPa NE 4.5mph /  7.3km/h 8.1mph /  13km/h 62.9% 0in /  0.0mm
23:14 80.1 °F /  26.7 °C 66.4 °F /  19.1 °C 30.1in /  1017.5hPa NE 5.2mph /  8.4km/h 9.2mph /  14.8km/h 63% 0in /  0.0mm
23:19 80.1 °F /  26.7 °C 66.4 °F /  19.1 °C 30.1in /  1017.6hPa NNE 4.7mph /  7.6km/h 9mph /  14.5km/h 63% 0in /  0.0mm
23:24 79.9 °F /  26.6 °C 66.2 °F /  19 °C 30.1in /  1017.6hPa NO 3.6mph /  5.8km/h 5mph /  8km/h 63% 0in /  0.0mm
23:29 79.9 °F /  26.6 °C 66.2 °F /  19 °C 30.1in /  1017.6hPa NO 3.1mph /  5km/h 4mph /  6.4km/h 63.1% 0in /  0.0mm
23:34 79.7 °F /  26.5 °C 66.4 °F /  19.1 °C 30.1in /  1017.6hPa NO 2mph /  3.2km/h 4mph /  6.4km/h 64% 0in /  0.0mm
23:39 79.5 °F /  26.4 °C 66.4 °F /  19.1 °C 30.1in /  1017.6hPa NNO 1.5mph /  2.4km/h 3.6mph /  5.8km/h 64% 0in /  0.0mm
23:44 79.5 °F /  26.4 °C 66.4 °F /  19.1 °C 30.1in /  1017.6hPa Calm   5.2mph /  8.4km/h 64% 0in /  0.0mm
23:49 79.5 °F /  26.4 °C 66.4 °F /  19.1 °C 30.1in /  1017.6hPa NNO 0.7mph /  1.1km/h 5mph /  8km/h 64% 0in /  0.0mm
23:54 79.5 °F /  26.4 °C 66.4 °F /  19.1 °C 30.1in /  1017.6hPa NNE 2.4mph /  3.9km/h 5mph /  8km/h 64% 0in /  0.0mm
23:59 79.5 °F /  26.4 °C 66.4 °F /  19.1 °C 30.1in /  1017.6hPa NE 2.4mph /  3.9km/h 6.2mph /  10km/h 64% 0in /  0.0mm
Murcia-Puente Tocinos, España
Compliments of Weather Underground - 3 mb

La estación de MeteoMurcia.com, publica sus datos en los siguientes proyectos:

Weather Underground PWS IMURCIAP2 Meteoclimatic www.awekas.at

W3Counter
Web Analytics